Time;durP1;ratioP1;P1;durP2;ratioP2;P2;SDS_P1;SDS_P2;PMS_P1;PMS_P2;Temp;Humidity;BMP_temperature;BMP_pressure;BME280_temperature;BME280_humidity;BME280_pressure;Samples;Min_cycle;Max_cycle;Signal;HPM_P1;HPM_P2
2022/06/20 00:00:56;;;;;;;9.10;2.65;;;25.50;49.70;;;;;;6163238;28;80110;-62
2022/06/20 00:03:57;;;;;;;6.18;3.20;;;25.50;49.60;;;;;;6162092;28;81723;-62
2022/06/20 00:06:57;;;;;;;5.78;2.88;;;25.50;50.00;;;;;;6151366;28;81180;-63
2022/06/20 00:09:58;;;;;;;4.13;2.53;;;25.70;50.10;;;;;;6161202;28;82325;-62
2022/06/20 00:12:58;;;;;;;9.00;3.10;;;25.80;50.00;;;;;;6161904;28;82070;-63
2022/06/20 00:16:02;;;;;;;6.22;2.95;;;25.90;49.80;;;;;;6164285;28;80405;-65
2022/06/20 00:19:02;;;;;;;5.90;2.90;;;25.90;50.30;;;;;;6158231;28;80435;-64
2022/06/20 00:22:03;;;;;;;5.22;2.83;;;25.90;50.30;;;;;;6156183;28;80828;-63
2022/06/20 00:25:03;;;;;;;7.93;2.75;;;26.00;50.30;;;;;;6159312;28;80843;-61
2022/06/20 00:28:04;;;;;;;5.00;2.67;;;26.10;50.40;;;;;;6149783;28;80380;-64
2022/06/20 00:31:04;;;;;;;4.97;2.53;;;25.90;51.00;;;;;;6162398;28;80606;-63
2022/06/20 00:34:05;;;;;;;4.03;2.60;;;25.90;51.20;;;;;;6154310;28;80449;-63
2022/06/20 00:37:05;;;;;;;4.88;2.95;;;26.00;51.10;;;;;;6155577;28;81159;-63
2022/06/20 00:40:06;;;;;;;5.95;2.58;;;26.00;50.80;;;;;;6155804;28;80749;-63
2022/06/20 00:43:06;;;;;;;4.38;2.80;;;26.10;50.80;;;;;;6160347;28;85170;-64
2022/06/20 00:46:07;;;;;;;7.40;2.70;;;26.10;50.80;;;;;;6162136;28;80382;-63
2022/06/20 00:49:07;;;;;;;6.32;2.40;;;26.10;50.70;;;;;;6152023;28;80211;-63
2022/06/20 00:52:08;;;;;;;6.18;2.67;;;26.00;51.00;;;;;;6161648;28;82931;-63
2022/06/20 00:55:09;;;;;;;5.47;2.58;;;25.40;52.10;;;;;;6162031;28;80298;-63
2022/06/20 00:58:09;;;;;;;8.52;3.08;;;25.00;52.60;;;;;;6161994;28;81074;-62
2022/06/20 01:01:10;;;;;;;4.05;2.53;;;25.00;53.20;;;;;;6161631;28;81664;-63
2022/06/20 01:04:10;;;;;;;6.07;3.35;;;24.80;53.20;;;;;;6160998;28;80021;-63
2022/06/20 01:07:11;;;;;;;9.68;3.28;;;24.70;53.40;;;;;;6152731;28;83229;-63
2022/06/20 01:10:11;;;;;;;8.02;3.33;;;24.80;52.80;;;;;;6159826;28;81080;-63
2022/06/20 01:13:12;;;;;;;6.18;3.05;;;25.00;52.60;;;;;;6161919;28;80279;-62
2022/06/20 01:16:12;;;;;;;5.85;3.10;;;25.10;52.70;;;;;;6161337;28;80183;-62
2022/06/20 01:19:13;;;;;;;6.47;2.67;;;25.20;52.30;;;;;;6151610;28;80910;-63
2022/06/20 01:22:13;;;;;;;4.40;2.50;;;25.30;52.10;;;;;;6161792;28;80284;-62
2022/06/20 01:25:14;;;;;;;4.93;2.78;;;25.50;52.00;;;;;;6161120;28;80540;-62
2022/06/20 01:28:14;;;;;;;5.50;3.00;;;25.50;51.30;;;;;;6161160;28;80832;-62
2022/06/20 01:31:15;;;;;;;10.68;2.75;;;25.30;51.20;;;;;;6161211;28;80011;-62
2022/06/20 01:34:15;;;;;;;5.65;2.88;;;25.20;51.50;;;;;;6160361;28;80480;-62
2022/06/20 01:37:29;;;;;;;5.07;2.45;;;25.30;51.40;;;;;;6161182;28;80363;-63
2022/06/20 01:40:29;;;;;;;9.13;2.83;;;25.50;51.30;;;;;;6139026;28;80943;-62
2022/06/20 01:43:29;;;;;;;4.55;2.53;;;25.60;51.00;;;;;;6136762;28;80800;-63
2022/06/20 01:46:30;;;;;;;6.93;2.83;;;25.60;50.70;;;;;;6148421;28;80353;-63
2022/06/20 01:49:30;;;;;;;7.25;2.53;;;25.60;50.80;;;;;;6157472;28;80027;-63
2022/06/20 01:52:31;;;;;;;3.55;2.15;;;25.70;50.80;;;;;;6137682;28;80273;-63
2022/06/20 01:55:31;;;;;;;6.15;2.50;;;25.50;50.00;;;;;;6158664;28;81677;-62
2022/06/20 01:58:32;;;;;;;7.57;2.20;;;24.70;50.90;;;;;;6161089;28;80091;-62
2022/06/20 02:01:33;;;;;;;4.32;2.22;;;24.60;51.00;;;;;;6160497;28;81030;-62
2022/06/20 02:04:33;;;;;;;4.22;2.58;;;24.60;50.20;;;;;;6155624;28;80766;-63
2022/06/20 02:07:34;;;;;;;5.30;2.10;;;24.40;49.90;;;;;;6152848;28;80402;-62
2022/06/20 02:10:34;;;;;;;6.55;2.35;;;24.30;49.80;;;;;;6151871;28;80883;-63
2022/06/20 02:13:35;;;;;;;6.13;2.38;;;24.10;50.90;;;;;;6160174;28;80323;-63
2022/06/20 02:16:35;;;;;;;4.53;2.45;;;24.20;50.60;;;;;;6158259;28;81007;-63
2022/06/20 02:19:36;;;;;;;3.60;2.75;;;23.80;50.00;;;;;;6126190;28;81619;-64
2022/06/20 02:22:36;;;;;;;3.30;1.77;;;23.90;50.60;;;;;;6147119;28;80570;-63
2022/06/20 02:25:37;;;;;;;2.20;1.90;;;24.10;50.10;;;;;;6144982;28;82948;-63
2022/06/20 02:28:37;;;;;;;5.22;2.20;;;24.10;50.50;;;;;;6160546;28;80412;-63
2022/06/20 02:31:38;;;;;;;3.38;1.90;;;24.50;49.90;;;;;;6158545;28;83028;-63
2022/06/20 02:34:38;;;;;;;5.30;2.15;;;24.80;49.70;;;;;;6152424;28;81299;-63
2022/06/20 02:37:39;;;;;;;5.20;2.47;;;24.80;49.40;;;;;;6159958;28;81546;-62
2022/06/20 02:40:41;;;;;;;3.13;2.25;;;24.40;49.80;;;;;;6173795;28;82184;-63
2022/06/20 02:43:42;;;;;;;7.18;2.53;;;24.40;50.50;;;;;;6153577;28;80352;-63
2022/06/20 02:46:42;;;;;;;7.45;2.65;;;24.80;50.20;;;;;;6154465;28;80432;-63
2022/06/20 02:49:43;;;;;;;4.15;2.13;;;24.50;50.10;;;;;;6135934;28;80745;-62
2022/06/20 02:52:43;;;;;;;3.90;2.75;;;24.40;50.50;;;;;;6135901;28;80844;-63
2022/06/20 02:55:44;;;;;;;4.72;2.50;;;24.70;49.90;;;;;;6159543;28;81497;-62
2022/06/20 02:58:44;;;;;;;4.80;2.20;;;24.60;49.30;;;;;;6159702;28;81360;-62
2022/06/20 03:01:45;;;;;;;5.38;2.03;;;24.40;50.00;;;;;;6158408;28;80335;-63
2022/06/20 03:04:45;;;;;;;8.80;2.20;;;24.30;50.00;;;;;;6159536;28;80318;-62
2022/06/20 03:07:46;;;;;;;4.53;2.22;;;24.00;49.90;;;;;;6159670;28;81608;-62
2022/06/20 03:10:46;;;;;;;5.50;2.03;;;24.20;50.30;;;;;;6159440;28;80592;-63
2022/06/20 03:13:47;;;;;;;2.20;1.80;;;24.40;49.50;;;;;;6151052;28;79940;-63
2022/06/20 03:16:47;;;;;;;3.83;2.33;;;24.50;49.50;;;;;;6145135;28;86682;-67
2022/06/20 03:19:48;;;;;;;3.28;2.00;;;24.70;49.10;;;;;;6148803;28;80512;-64
2022/06/20 03:22:48;;;;;;;11.90;7.63;;;24.60;48.80;;;;;;6153551;28;80731;-64
2022/06/20 03:25:48;;;;;;;9.88;5.40;;;24.40;49.20;;;;;;6162680;28;80528;-64
2022/06/20 03:28:49;;;;;;;5.50;3.42;;;24.70;49.30;;;;;;6163739;28;81595;-64
2022/06/20 03:31:49;;;;;;;6.93;3.30;;;24.80;48.90;;;;;;6148775;28;80112;-63
2022/06/20 03:34:50;;;;;;;8.25;3.00;;;24.80;49.20;;;;;;6152351;28;81633;-63
2022/06/20 03:37:50;;;;;;;3.83;2.40;;;24.90;49.50;;;;;;6153738;28;81584;-65
2022/06/20 03:40:51;;;;;;;8.02;3.50;;;25.10;49.40;;;;;;6151092;28;81699;-63
2022/06/20 03:43:51;;;;;;;5.60;2.45;;;25.30;49.30;;;;;;6147583;28;80658;-64
2022/06/20 03:46:53;;;;;;;7.22;2.80;;;24.90;50.50;;;;;;6149814;28;80515;-63
2022/06/20 03:49:53;;;;;;;4.97;2.33;;;24.20;51.70;;;;;;6152810;28;82402;-64
2022/06/20 03:52:54;;;;;;;6.45;2.60;;;24.30;52.00;;;;;;6152093;28;80823;-63
2022/06/20 03:55:54;;;;;;;9.93;3.45;;;24.70;51.40;;;;;;6158980;28;80042;-63
2022/06/20 03:58:55;;;;;;;6.43;2.15;;;24.70;50.10;;;;;;6161098;28;79967;-61
2022/06/20 04:01:56;;;;;;;9.27;2.38;;;24.40;50.10;;;;;;6147059;28;80904;-63
2022/06/20 04:04:56;;;;;;;6.35;3.50;;;24.20;50.60;;;;;;6160791;28;81282;-63
2022/06/20 04:07:56;;;;;;;4.10;2.67;;;24.10;51.10;;;;;;6154517;28;83210;-62
2022/06/20 04:11:01;;;;;;;4.38;2.20;;;24.50;51.10;;;;;;6150689;28;80573;-63
2022/06/20 04:14:01;;;;;;;5.78;2.35;;;24.70;50.10;;;;;;6160619;28;80353;-69
2022/06/20 04:18:27;;;;;;;3.00;2.40;;;24.50;50.30;;;;;;6156422;28;80741;-65
2022/06/20 04:20:22;;;;;;;9.93;2.55;;;24.70;54.20;;;;;;6159369;28;80471;-69
2022/06/20 04:23:23;;;;;;;6.10;2.22;;;25.00;55.40;;;;;;6159704;28;80376;-64
2022/06/20 04:26:23;;;;;;;3.15;2.20;;;25.20;55.40;;;;;;6161286;28;81857;-63
2022/06/20 04:29:24;;;;;;;9.07;3.25;;;25.40;55.50;;;;;;6157987;28;81081;-63
2022/06/20 04:32:24;;;;;;;8.02;2.65;;;25.50;54.80;;;;;;6159488;28;81360;-71
2022/06/20 04:35:25;;;;;;;9.60;2.85;;;25.60;55.80;;;;;;6155294;28;81938;-62
2022/06/20 04:38:25;;;;;;;6.63;2.28;;;25.70;55.80;;;;;;6157391;28;80640;-63
2022/06/20 04:41:25;;;;;;;8.45;2.42;;;25.70;54.70;;;;;;6154521;28;80053;-61
2022/06/20 04:44:26;;;;;;;6.45;2.60;;;25.80;54.90;;;;;;6137719;28;81484;-63
2022/06/20 04:47:26;;;;;;;4.97;2.50;;;25.90;54.40;;;;;;6128814;28;80841;-62
2022/06/20 04:50:27;;;;;;;7.00;3.00;;;25.90;53.70;;;;;;6137482;28;81558;-62
2022/06/20 04:53:27;;;;;;;12.13;2.97;;;26.00;53.80;;;;;;6137802;28;84017;-62
2022/06/20 04:56:28;;;;;;;8.32;2.90;;;26.00;53.70;;;;;;6137952;28;80593;-64
2022/06/20 04:59:28;;;;;;;8.48;3.13;;;26.10;54.30;;;;;;6138669;28;80408;-78
2022/06/20 05:02:29;;;;;;;5.10;2.97;;;26.10;54.10;;;;;;6137175;28;81608;-63
2022/06/20 05:05:29;;;;;;;13.38;3.15;;;26.10;54.20;;;;;;6133913;28;81122;-62
2022/06/20 05:08:31;;;;;;;8.35;2.78;;;26.20;54.30;;;;;;6137588;28;80599;-63
2022/06/20 05:11:31;;;;;;;8.15;3.55;;;26.20;54.10;;;;;;6137735;28;80619;-73
2022/06/20 05:14:31;;;;;;;7.07;3.17;;;26.20;54.60;;;;;;6138236;28;80760;-68
2022/06/20 05:17:32;;;;;;;10.63;2.95;;;26.30;54.50;;;;;;6134149;28;80560;-61
2022/06/20 05:20:32;;;;;;;13.10;3.53;;;26.30;54.40;;;;;;6135853;28;80444;-61
2022/06/20 05:23:33;;;;;;;6.68;2.75;;;26.30;55.00;;;;;;6131825;28;82353;-62
2022/06/20 05:26:33;;;;;;;8.48;3.35;;;26.40;54.90;;;;;;6136163;28;83543;-62
2022/06/20 05:29:34;;;;;;;13.23;3.78;;;26.40;54.70;;;;;;6136733;28;81526;-62
2022/06/20 05:32:34;;;;;;;13.68;3.15;;;26.40;54.30;;;;;;6137733;28;80685;-63
2022/06/20 05:35:35;;;;;;;15.43;5.18;;;26.40;54.10;;;;;;6135864;28;80379;-62
2022/06/20 05:38:35;;;;;;;12.75;4.35;;;26.40;54.20;;;;;;6136044;28;81570;-62
2022/06/20 05:41:36;;;;;;;22.90;6.53;;;26.40;53.70;;;;;;6136725;28;80317;-62
2022/06/20 05:44:36;;;;;;;17.77;5.80;;;26.50;53.50;;;;;;6136830;28;80539;-62
2022/06/20 05:47:38;;;;;;;9.95;3.97;;;26.50;53.40;;;;;;6135747;28;80504;-62
2022/06/20 05:50:38;;;;;;;11.57;3.70;;;26.60;53.30;;;;;;6137047;28;80642;-62
2022/06/20 05:53:39;;;;;;;10.88;3.72;;;26.60;52.30;;;;;;6136142;28;80768;-76
2022/06/20 05:56:40;;;;;;;7.45;3.60;;;26.50;52.40;;;;;;6136458;28;81686;-63
2022/06/20 05:59:40;;;;;;;12.32;3.45;;;26.50;52.80;;;;;;6135879;28;80873;-63
2022/06/20 06:02:41;;;;;;;11.13;3.50;;;26.50;52.70;;;;;;6132417;28;80636;-70
2022/06/20 06:05:41;;;;;;;6.20;3.22;;;26.50;52.50;;;;;;6129165;28;81687;-73
2022/06/20 06:08:42;;;;;;;11.25;3.90;;;26.50;52.50;;;;;;6135724;28;80490;-73
2022/06/20 06:11:43;;;;;;;7.38;2.88;;;26.60;52.40;;;;;;6132864;28;80614;-64
2022/06/20 06:14:43;;;;;;;5.78;2.95;;;26.50;52.50;;;;;;6133306;28;80578;-62
2022/06/20 06:17:44;;;;;;;7.20;3.33;;;26.50;52.10;;;;;;6134081;28;80244;-62
2022/06/20 06:20:44;;;;;;;10.60;3.30;;;26.50;51.70;;;;;;6129887;28;80300;-63
2022/06/20 06:23:45;;;;;;;8.15;3.53;;;26.50;51.40;;;;;;6123443;28;81526;-63
2022/06/20 06:26:45;;;;;;;5.70;3.10;;;26.50;51.60;;;;;;6135871;28;80276;-64
2022/06/20 06:29:45;;;;;;;11.77;3.17;;;26.60;51.60;;;;;;6135419;28;80994;-64
2022/06/20 06:32:46;;;;;;;4.97;3.35;;;26.60;51.50;;;;;;6134778;28;80412;-63
2022/06/20 06:35:46;;;;;;;9.00;3.58;;;26.60;51.50;;;;;;6129653;28;80450;-62
2022/06/20 06:38:48;;;;;;;8.32;3.42;;;26.60;51.60;;;;;;6137514;28;80812;-61
2022/06/20 06:41:48;;;;;;;8.57;3.22;;;26.60;51.60;;;;;;6144563;28;80239;-63
2022/06/20 06:44:49;;;;;;;6.30;3.03;;;26.60;51.90;;;;;;6157507;28;81563;-64
2022/06/20 06:47:49;;;;;;;5.43;3.15;;;26.70;51.60;;;;;;6159048;28;80804;-63
2022/06/20 06:50:50;;;;;;;6.43;3.67;;;26.70;51.90;;;;;;6150732;28;81282;-62
2022/06/20 06:53:50;;;;;;;8.60;3.08;;;26.70;51.70;;;;;;6155012;28;80070;-64
2022/06/20 06:56:51;;;;;;;5.35;2.67;;;26.70;51.70;;;;;;6159921;28;80680;-64
2022/06/20 06:59:52;;;;;;;10.05;3.03;;;26.70;51.60;;;;;;6154979;28;80472;-64
2022/06/20 07:02:52;;;;;;;5.80;3.30;;;26.70;51.80;;;;;;6156417;28;80162;-63
2022/06/20 07:05:53;;;;;;;6.57;2.95;;;26.70;51.70;;;;;;6154134;28;80834;-64
2022/06/20 07:08:53;;;;;;;11.10;3.13;;;26.70;51.40;;;;;;6145111;28;81595;-63
2022/06/20 07:11:54;;;;;;;8.73;3.60;;;26.70;51.00;;;;;;6149953;28;80245;-64
2022/06/20 07:14:54;;;;;;;6.55;3.55;;;26.70;51.40;;;;;;6156202;28;80217;-63
2022/06/20 07:17:55;;;;;;;6.90;3.20;;;26.80;51.50;;;;;;6150470;28;80170;-73
2022/06/20 07:20:55;;;;;;;4.20;3.10;;;26.80;51.40;;;;;;6158910;28;80928;-72
2022/06/20 07:23:56;;;;;;;11.20;3.15;;;26.90;50.90;;;;;;6153239;28;82842;-70
2022/06/20 07:26:56;;;;;;;10.10;3.40;;;26.90;51.20;;;;;;6147576;28;83372;-65
2022/06/20 07:29:57;;;;;;;9.50;3.28;;;26.90;50.80;;;;;;6150602;28;80086;-64
2022/06/20 07:32:57;;;;;;;10.90;3.30;;;26.90;51.20;;;;;;6151372;28;81267;-64
2022/06/20 07:35:58;;;;;;;9.00;3.40;;;26.90;51.10;;;;;;6158352;28;81458;-64
2022/06/20 07:38:58;;;;;;;9.85;4.00;;;27.00;50.90;;;;;;6147824;28;82020;-64
2022/06/20 07:41:58;;;;;;;8.80;3.88;;;27.00;51.30;;;;;;6157458;28;80878;-64
2022/06/20 07:44:59;;;;;;;8.52;4.00;;;27.00;51.40;;;;;;6155658;28;81025;-64
2022/06/20 07:47:59;;;;;;;5.32;2.55;;;27.00;51.30;;;;;;6153152;28;80501;-64
2022/06/20 07:51:00;;;;;;;7.35;3.13;;;27.00;50.30;;;;;;6151872;28;82995;-65
2022/06/20 07:54:00;;;;;;;8.88;3.55;;;27.00;50.70;;;;;;6155703;28;80675;-63
2022/06/20 07:57:01;;;;;;;6.80;3.25;;;27.10;50.90;;;;;;6152313;28;81139;-63
2022/06/20 08:00:01;;;;;;;5.18;3.20;;;27.10;51.00;;;;;;6153505;28;80830;-70
2022/06/20 08:03:05;;;;;;;9.77;3.50;;;27.10;51.00;;;;;;6155438;28;80164;-66
2022/06/20 08:06:05;;;;;;;9.88;3.72;;;27.10;51.70;;;;;;6147153;28;80797;-65
2022/06/20 08:09:07;;;;;;;7.95;3.22;;;27.10;51.50;;;;;;6155110;28;81430;-63
2022/06/20 08:12:07;;;;;;;6.38;3.47;;;27.10;51.40;;;;;;6158199;28;81570;-64
2022/06/20 08:15:08;;;;;;;4.85;2.90;;;27.20;51.60;;;;;;6158952;28;80402;-63
2022/06/20 08:18:08;;;;;;;5.07;2.72;;;27.20;51.50;;;;;;6154996;28;80982;-73
2022/06/20 08:21:08;;;;;;;6.40;3.20;;;27.20;50.80;;;;;;6160496;28;80632;-69
2022/06/20 08:24:09;;;;;;;11.45;4.75;;;27.20;50.80;;;;;;6152725;28;87406;-68
2022/06/20 08:27:09;;;;;;;8.30;3.80;;;27.30;50.50;;;;;;6158838;28;80378;-61
2022/06/20 08:30:11;;;;;;;12.65;3.10;;;27.40;51.80;;;;;;6162345;28;81166;-63
2022/06/20 08:33:12;;;;;;;5.25;3.20;;;27.40;51.70;;;;;;6161056;28;80484;-65
2022/06/20 08:36:12;;;;;;;10.48;3.15;;;27.50;51.70;;;;;;6154109;28;80302;-62
2022/06/20 08:39:13;;;;;;;6.88;2.80;;;27.50;50.90;;;;;;6161898;28;80634;-63
2022/06/20 08:42:13;;;;;;;7.88;3.30;;;27.60;51.00;;;;;;6155828;28;81035;-62
2022/06/20 08:45:14;;;;;;;5.25;3.33;;;27.60;51.60;;;;;;6153441;28;80372;-63
2022/06/20 08:48:14;;;;;;;8.32;3.80;;;27.60;51.50;;;;;;6158068;28;83110;-63
2022/06/20 08:51:14;;;;;;;4.72;3.30;;;27.60;51.80;;;;;;6161227;28;80624;-64
2022/06/20 08:54:15;;;;;;;8.00;3.08;;;27.60;51.40;;;;;;6157722;28;81364;-64
2022/06/20 08:57:15;;;;;;;5.32;3.08;;;27.60;51.80;;;;;;6159635;28;80290;-63
2022/06/20 09:00:16;;;;;;;8.15;3.38;;;27.60;52.10;;;;;;6160202;28;80301;-64
2022/06/20 09:03:16;;;;;;;4.85;2.75;;;27.70;51.70;;;;;;6153157;28;80529;-64
2022/06/20 09:06:17;;;;;;;5.25;3.60;;;27.60;51.70;;;;;;6156879;28;81702;-63
2022/06/20 09:09:17;;;;;;;6.63;2.88;;;27.60;51.80;;;;;;6154848;28;80768;-63
2022/06/20 09:12:18;;;;;;;10.98;3.38;;;27.60;52.10;;;;;;6160244;28;80711;-64
2022/06/20 09:15:18;;;;;;;6.93;3.15;;;27.70;51.90;;;;;;6149229;28;80335;-64
2022/06/20 09:18:19;;;;;;;9.07;3.22;;;27.60;51.80;;;;;;6158510;28;80087;-63
2022/06/20 09:21:19;;;;;;;8.18;3.15;;;27.60;51.90;;;;;;6153253;28;82099;-62
2022/06/20 09:24:20;;;;;;;13.32;2.97;;;27.60;52.40;;;;;;6152341;28;81373;-63
2022/06/20 09:27:20;;;;;;;3.78;2.90;;;27.60;51.60;;;;;;6155923;28;80180;-65
2022/06/20 09:30:21;;;;;;;10.80;3.15;;;27.60;51.80;;;;;;6157729;28;80489;-63
2022/06/20 09:33:21;;;;;;;7.18;3.22;;;27.60;51.80;;;;;;6144839;28;80242;-64
2022/06/20 09:36:22;;;;;;;7.05;3.30;;;27.60;52.00;;;;;;6152955;28;80384;-63
2022/06/20 09:39:22;;;;;;;6.07;3.40;;;27.60;52.30;;;;;;6149293;28;82038;-65
2022/06/20 09:42:23;;;;;;;5.10;3.00;;;27.60;52.20;;;;;;6136989;28;80429;-64
2022/06/20 09:45:23;;;;;;;8.52;3.38;;;27.60;52.20;;;;;;6133137;28;81122;-64
2022/06/20 09:48:24;;;;;;;6.50;3.08;;;27.60;52.20;;;;;;6136285;28;80754;-64
2022/06/20 09:51:24;;;;;;;8.02;2.85;;;27.60;52.30;;;;;;6134041;28;80709;-64
2022/06/20 09:54:25;;;;;;;13.32;3.58;;;27.60;52.30;;;;;;6133284;28;81016;-63
2022/06/20 09:57:27;;;;;;;10.18;3.20;;;27.60;52.70;;;;;;6117752;28;80586;-65
2022/06/20 10:00:27;;;;;;;6.57;3.63;;;27.60;52.90;;;;;;6122490;28;80309;-65
2022/06/20 10:03:28;;;;;;;9.77;3.67;;;27.60;53.40;;;;;;6131997;28;81862;-64
2022/06/20 10:06:28;;;;;;;19.77;3.47;;;27.60;53.70;;;;;;6133202;28;81125;-64
2022/06/20 10:09:29;;;;;;;10.07;3.72;;;27.60;54.20;;;;;;6134320;28;81539;-63
2022/06/20 10:12:29;;;;;;;6.70;3.63;;;27.70;54.10;;;;;;6133665;28;81399;-64
2022/06/20 10:15:30;;;;;;;6.28;3.60;;;27.70;55.90;;;;;;6133974;28;81839;-63
2022/06/20 10:18:30;;;;;;;8.85;3.97;;;27.70;56.40;;;;;;6135804;28;81055;-63
2022/06/20 10:21:30;;;;;;;11.75;3.50;;;27.80;56.30;;;;;;6136118;28;82402;-65
2022/06/20 10:24:31;;;;;;;5.70;3.38;;;27.80;56.30;;;;;;6134716;28;80447;-64
2022/06/20 10:27:32;;;;;;;5.28;3.22;;;27.90;55.90;;;;;;6148106;28;82037;-64
2022/06/20 10:30:32;;;;;;;6.43;3.67;;;28.00;55.80;;;;;;6150098;28;80326;-64
2022/06/20 10:33:33;;;;;;;9.35;3.67;;;28.00;56.00;;;;;;6154992;28;80561;-63
2022/06/20 10:36:35;;;;;;;4.85;3.70;;;28.00;55.90;;;;;;6160173;28;80157;-63
2022/06/20 10:39:36;;;;;;;15.15;3.20;;;28.10;55.60;;;;;;6159033;28;81734;-64
2022/06/20 10:42:36;;;;;;;8.73;4.20;;;28.10;55.30;;;;;;6136271;28;82684;-63
2022/06/20 10:45:37;;;;;;;7.97;3.25;;;28.10;55.20;;;;;;6152959;28;80396;-65
2022/06/20 10:48:37;;;;;;;5.47;3.55;;;28.20;54.70;;;;;;6155577;28;80400;-65
2022/06/20 10:51:38;;;;;;;5.30;4.18;;;28.20;54.60;;;;;;6145337;28;80600;-66
2022/06/20 10:54:38;;;;;;;8.13;3.65;;;28.20;54.60;;;;;;6151219;28;80712;-65
2022/06/20 10:57:39;;;;;;;6.28;4.00;;;28.20;55.00;;;;;;6159302;28;80970;-66
2022/06/20 11:00:39;;;;;;;6.30;3.72;;;28.20;54.60;;;;;;6159388;28;80378;-69
2022/06/20 11:03:40;;;;;;;4.22;3.15;;;28.20;54.60;;;;;;6156915;28;80858;-76
2022/06/20 11:06:40;;;;;;;5.53;3.63;;;28.20;54.50;;;;;;6155970;28;80331;-73
2022/06/20 11:09:40;;;;;;;8.13;3.60;;;28.10;54.50;;;;;;6148495;28;80834;-75
2022/06/20 11:12:41;;;;;;;8.13;3.85;;;28.10;54.50;;;;;;6157968;28;81727;-77
2022/06/20 11:15:42;;;;;;;12.13;4.35;;;28.10;54.40;;;;;;6156974;28;82200;-77
2022/06/20 11:18:43;;;;;;;6.20;3.72;;;28.10;54.30;;;;;;6156383;28;80609;-76
2022/06/20 11:21:43;;;;;;;6.40;3.85;;;28.10;54.20;;;;;;6146635;28;80498;-78
2022/06/20 11:24:44;;;;;;;6.45;3.78;;;28.10;54.10;;;;;;6158303;28;81947;-76
2022/06/20 11:27:44;;;;;;;7.55;4.03;;;28.10;54.00;;;;;;6157884;28;80844;-76
2022/06/20 11:30:45;;;;;;;10.07;4.60;;;28.10;53.80;;;;;;6153032;28;80543;-77
2022/06/20 11:34:00;;;;;;;4.80;3.78;;;28.10;53.90;;;;;;6159768;28;81689;-76
2022/06/20 11:37:01;;;;;;;11.15;4.00;;;28.10;53.90;;;;;;6156133;28;80702;-74
2022/06/20 11:40:04;;;;;;;7.90;4.05;;;28.10;54.00;;;;;;6158745;28;80682;-77
2022/06/20 11:43:04;;;;;;;9.35;4.50;;;28.10;54.00;;;;;;6149490;28;80229;-63
2022/06/20 11:46:05;;;;;;;14.77;4.20;;;28.10;54.00;;;;;;6150320;28;80907;-62
2022/06/20 11:49:05;;;;;;;8.48;4.57;;;28.10;54.30;;;;;;6152246;28;81591;-63
2022/06/20 11:52:06;;;;;;;20.55;4.38;;;28.10;54.30;;;;;;6143504;28;80570;-63
2022/06/20 11:55:07;;;;;;;11.70;4.20;;;28.10;54.60;;;;;;6131539;28;80087;-63
2022/06/20 11:58:07;;;;;;;11.25;4.25;;;28.20;54.70;;;;;;6134229;28;81528;-66
2022/06/20 12:01:08;;;;;;;7.40;3.85;;;28.20;54.90;;;;;;6127835;28;80667;-64
2022/06/20 12:04:09;;;;;;;15.55;4.65;;;28.20;54.90;;;;;;6134679;28;80778;-63
2022/06/20 12:07:09;;;;;;;9.65;3.47;;;28.20;55.40;;;;;;6135411;28;80456;-64
2022/06/20 12:10:10;;;;;;;7.65;3.53;;;28.20;55.40;;;;;;6138320;28;81483;-63
2022/06/20 12:13:10;;;;;;;8.82;3.92;;;28.20;55.30;;;;;;6136253;28;80388;-64
2022/06/20 12:16:11;;;;;;;9.40;3.63;;;28.20;55.50;;;;;;6132034;28;81412;-64
2022/06/20 12:25:50;;;;;;;10.50;3.92;;;28.30;55.30;;;;;;6160433;28;80988;-62
2022/06/20 12:28:50;;;;;;;9.02;3.63;;;28.20;55.40;;;;;;6159940;28;81173;-64
2022/06/20 12:31:51;;;;;;;9.20;3.33;;;28.20;55.50;;;;;;6153742;28;84931;-64
2022/06/20 12:34:51;;;;;;;10.43;4.25;;;28.20;55.30;;;;;;6157949;28;80691;-64
2022/06/20 12:37:52;;;;;;;12.50;3.25;;;28.10;55.20;;;;;;6154151;28;80247;-63
2022/06/20 12:40:52;;;;;;;7.10;3.10;;;28.10;54.90;;;;;;6150500;28;80956;-65
2022/06/20 12:43:54;;;;;;;8.98;3.08;;;28.10;54.90;;;;;;6157172;28;80706;-65
2022/06/20 12:46:57;;;;;;;9.98;3.08;;;28.10;55.00;;;;;;6150525;28;81361;-65
2022/06/20 12:49:58;;;;;;;12.25;3.20;;;28.00;55.00;;;;;;6161259;28;80901;-69
2022/06/20 12:52:58;;;;;;;18.63;3.78;;;27.90;54.70;;;;;;6153753;28;80133;-71
2022/06/20 12:55:59;;;;;;;22.45;4.30;;;28.00;55.10;;;;;;6151403;28;80621;-72
2022/06/20 12:58:59;;;;;;;9.65;3.58;;;28.00;55.20;;;;;;6158054;28;80530;-63
2022/06/20 13:02:00;;;;;;;9.95;3.80;;;28.10;56.20;;;;;;6158112;28;80663;-62
2022/06/20 13:05:00;;;;;;;17.20;3.10;;;28.10;56.80;;;;;;6160573;28;80584;-60
2022/06/20 13:08:01;;;;;;;9.23;3.38;;;28.10;54.90;;;;;;6155093;28;80075;-65
2022/06/20 13:11:01;;;;;;;12.25;3.17;;;28.10;54.60;;;;;;6159631;28;80547;-63
2022/06/20 13:14:02;;;;;;;11.52;3.15;;;28.10;54.70;;;;;;6156932;28;81697;-63
2022/06/20 13:17:02;;;;;;;6.55;2.45;;;28.10;54.30;;;;;;6153611;28;81916;-64
2022/06/20 13:20:04;;;;;;;12.45;2.17;;;28.00;51.60;;;;;;6156737;28;80945;-65
2022/06/20 13:23:04;;;;;;;9.55;1.88;;;27.90;49.60;;;;;;6161234;28;80665;-64
2022/06/20 13:26:05;;;;;;;8.50;2.03;;;27.90;49.40;;;;;;6143368;28;81215;-64
2022/06/20 13:29:05;;;;;;;5.38;1.83;;;27.90;49.60;;;;;;6151233;28;80405;-64
2022/06/20 13:32:06;;;;;;;8.70;2.05;;;27.80;50.70;;;;;;6161086;28;80619;-63
2022/06/20 13:35:06;;;;;;;9.85;2.10;;;27.90;50.30;;;;;;6155544;28;80869;-63
2022/06/20 13:38:07;;;;;;;9.75;2.00;;;27.80;52.30;;;;;;6148695;28;81108;-64
2022/06/20 13:41:07;;;;;;;8.10;1.75;;;27.80;49.60;;;;;;6144424;28;80687;-64
2022/06/20 13:44:08;;;;;;;3.53;1.65;;;27.80;50.30;;;;;;6150161;28;81058;-63
2022/06/20 13:47:08;;;;;;;3.55;1.70;;;27.80;51.90;;;;;;6157421;28;81518;-64
2022/06/20 13:50:09;;;;;;;2.90;1.30;;;27.80;50.30;;;;;;6157786;28;81804;-65
2022/06/20 13:53:09;;;;;;;11.80;1.75;;;27.80;49.40;;;;;;6158834;28;80571;-64
2022/06/20 13:56:10;;;;;;;4.20;1.40;;;27.80;49.40;;;;;;6158921;28;80182;-64
2022/06/20 13:59:10;;;;;;;3.45;1.65;;;27.80;50.20;;;;;;6142989;28;80627;-64
2022/06/20 14:02:11;;;;;;;3.45;1.75;;;27.80;49.70;;;;;;6154826;28;81642;-65
2022/06/20 14:05:11;;;;;;;4.38;1.73;;;27.90;50.30;;;;;;6158432;28;80455;-65
2022/06/20 14:08:11;;;;;;;5.18;1.83;;;27.90;50.50;;;;;;6152458;28;81491;-66
2022/06/20 14:11:12;;;;;;;3.60;1.67;;;27.90;51.10;;;;;;6160235;28;80856;-65
2022/06/20 14:14:12;;;;;;;4.07;2.10;;;27.90;51.50;;;;;;6159369;28;80530;-64
2022/06/20 14:17:13;;;;;;;2.20;1.40;;;27.90;51.20;;;;;;6150523;28;81100;-64
2022/06/20 14:20:14;;;;;;;3.70;2.03;;;27.80;51.10;;;;;;6149041;28;80995;-65
2022/06/20 14:23:14;;;;;;;8.98;2.30;;;27.90;52.90;;;;;;6153971;28;80268;-63
2022/06/20 14:26:15;;;;;;;3.83;1.85;;;27.80;52.00;;;;;;6151604;28;80261;-65
2022/06/20 14:29:16;;;;;;;3.83;2.42;;;27.80;50.30;;;;;;6156269;28;80471;-63
2022/06/20 14:32:16;;;;;;;3.78;2.10;;;27.90;51.60;;;;;;6151652;28;85629;-64
2022/06/20 14:35:23;;;;;;;3.95;1.85;;;27.90;50.80;;;;;;6158827;28;80530;-64
2022/06/20 14:38:24;;;;;;;2.95;2.15;;;27.90;51.50;;;;;;6152968;28;80372;-63
2022/06/20 14:41:40;;;;;;;3.05;1.95;;;27.90;51.30;;;;;;6158095;28;80253;-63
2022/06/20 14:44:40;;;;;;;3.85;1.95;;;27.80;51.30;;;;;;6151339;28;82940;-63
2022/06/20 14:47:42;;;;;;;8.90;2.53;;;27.80;51.10;;;;;;6155283;28;80353;-64
2022/06/20 14:50:42;;;;;;;4.22;2.15;;;27.70;51.50;;;;;;6148752;28;81378;-63
2022/06/20 14:53:43;;;;;;;8.10;2.47;;;27.70;51.80;;;;;;6156793;28;81670;-64
2022/06/20 14:56:43;;;;;;;8.60;3.25;;;27.70;53.20;;;;;;6157733;28;80699;-64
2022/06/20 14:59:44;;;;;;;6.78;2.50;;;27.70;53.00;;;;;;6156861;28;81039;-64
2022/06/20 15:02:44;;;;;;;7.10;2.72;;;27.70;55.00;;;;;;6157387;28;80690;-64
2022/06/20 15:05:45;;;;;;;4.82;2.83;;;27.70;55.40;;;;;;6156153;28;80661;-64
2022/06/20 15:08:45;;;;;;;11.57;4.10;;;27.70;56.50;;;;;;6153694;28;80316;-61
2022/06/20 15:11:46;;;;;;;14.27;4.70;;;27.60;58.00;;;;;;6151249;28;80126;-63
2022/06/20 15:14:46;;;;;;;10.85;4.00;;;27.60;60.60;;;;;;6147946;28;81279;-63
2022/06/20 15:17:47;;;;;;;13.40;3.80;;;27.50;61.80;;;;;;6140898;28;80408;-73
2022/06/20 15:20:47;;;;;;;11.45;5.00;;;26.90;65.70;;;;;;6153370;28;80785;-62
2022/06/20 15:23:48;;;;;;;11.52;4.47;;;26.60;67.90;;;;;;6139389;28;81749;-63
2022/06/20 15:26:48;;;;;;;9.55;4.45;;;26.70;67.30;;;;;;6153137;28;80453;-62
2022/06/20 15:29:49;;;;;;;9.05;3.28;;;26.90;67.10;;;;;;6162910;28;80340;-64
2022/06/20 15:32:49;;;;;;;10.73;3.88;;;27.00;66.80;;;;;;6151222;28;80492;-63
2022/06/20 15:35:52;;;;;;;10.57;3.92;;;27.10;66.20;;;;;;6160338;28;80264;-62
2022/06/20 15:38:53;;;;;;;20.58;4.75;;;27.10;66.20;;;;;;6163197;28;81275;-62
2022/06/20 15:41:56;;;;;;;7.18;3.95;;;27.20;66.10;;;;;;6157588;28;80371;-61
2022/06/20 15:44:57;;;;;;;10.90;4.18;;;27.30;65.90;;;;;;6156876;28;80356;-61